Time;durP1;ratioP1;P1;durP2;ratioP2;P2;SDS_P1;SDS_P2;PMS_P1;PMS_P2;Temp;Humidity;BMP_temperature;BMP_pressure;BME280_temperature;BME280_humidity;BME280_pressure;Samples;Min_cycle;Max_cycle;Signal;HPM_P1;HPM_P2
2021/08/26 00:00:45;;;;;;;1.27;1.17;;;;;23.20;100436.00;;;;2072995;28;20584;-68
2021/08/26 00:06:44;;;;;;;1.30;1.20;;;;;23.20;100434.00;;;;2076216;28;20213;-69
2021/08/26 00:07:45;;;;;;;0.90;0.90;;;;;23.20;100431.00;;;;2073348;28;20229;-69
2021/08/26 00:08:47;;;;;;;1.33;1.23;;;;;23.20;100435.00;;;;2073062;28;20222;-69
2021/08/26 00:09:47;;;;;;;1.20;1.10;;;;;23.20;100440.00;;;;2070825;28;20241;-69
2021/08/26 00:10:47;;;;;;;1.10;1.00;;;;;23.20;100434.00;;;;2072631;28;20260;-69
2021/08/26 00:11:48;;;;;;;1.20;1.10;;;;;23.20;100436.00;;;;2072585;28;20214;-69
2021/08/26 00:12:49;;;;;;;1.40;1.30;;;;;23.20;100435.00;;;;2073332;28;20217;-69
2021/08/26 00:13:51;;;;;;;1.40;1.30;;;;;23.20;100440.00;;;;2072670;28;20971;-69
2021/08/26 00:14:52;;;;;;;1.40;1.30;;;;;23.20;100439.00;;;;2062555;28;20634;-69
2021/08/26 00:15:55;;;;;;;1.40;1.30;;;;;23.20;100435.00;;;;2068133;28;20210;-69
2021/08/26 00:16:55;;;;;;;1.20;1.10;;;;;23.20;100422.00;;;;2071483;28;20226;-69
2021/08/26 00:17:58;;;;;;;1.40;1.30;;;;;23.20;100434.00;;;;2073102;28;20217;-69
2021/08/26 00:18:58;;;;;;;1.30;1.20;;;;;23.20;100431.00;;;;2068428;28;20360;-69
2021/08/26 00:19:59;;;;;;;1.40;1.30;;;;;23.20;100430.00;;;;2073127;28;20218;-69
2021/08/26 00:21:00;;;;;;;1.43;1.33;;;;;23.20;100428.00;;;;2072563;28;20487;-69
2021/08/26 00:22:02;;;;;;;1.48;1.38;;;;;23.20;100428.00;;;;2072453;28;20222;-68
2021/08/26 00:23:02;;;;;;;1.88;1.38;;;;;23.20;100425.00;;;;2073008;28;20221;-69
2021/08/26 00:24:03;;;;;;;1.43;1.30;;;;;23.20;100421.00;;;;2073182;28;20230;-68
2021/08/26 00:25:04;;;;;;;1.53;1.43;;;;;23.20;100430.00;;;;2073156;28;20238;-69
2021/08/26 00:26:04;;;;;;;1.48;1.38;;;;;23.20;100421.00;;;;2073081;28;20213;-69
2021/08/26 00:27:05;;;;;;;1.20;1.10;;;;;23.20;100424.00;;;;2073221;28;20623;-69
2021/08/26 00:28:06;;;;;;;1.33;1.23;;;;;23.20;100422.00;;;;2073050;28;20225;-69
2021/08/26 00:29:06;;;;;;;1.53;1.43;;;;;23.20;100414.00;;;;2072857;28;20453;-68
2021/08/26 00:30:07;;;;;;;1.67;1.57;;;;;23.20;100407.00;;;;2072889;28;20219;-69
2021/08/26 00:31:07;;;;;;;1.53;1.43;;;;;23.20;100414.00;;;;2068338;28;20312;-68
2021/08/26 00:32:08;;;;;;;1.43;1.17;;;;;23.20;100410.00;;;;2072897;28;20265;-69
2021/08/26 00:33:08;;;;;;;1.63;1.53;;;;;23.20;100407.00;;;;2071734;28;20206;-68
2021/08/26 00:34:09;;;;;;;1.60;1.50;;;;;23.20;100404.00;;;;2072906;28;20214;-69
2021/08/26 00:35:10;;;;;;;1.60;1.50;;;;;23.20;100414.00;;;;2072963;28;20218;-68
2021/08/26 00:36:10;;;;;;;1.70;1.48;;;;;23.20;100410.00;;;;2073093;28;20558;-69
2021/08/26 00:37:11;;;;;;;1.20;1.10;;;;;23.20;100408.00;;;;2073122;28;20217;-68
2021/08/26 00:38:11;;;;;;;1.70;1.60;;;;;23.20;100411.00;;;;2073062;28;20241;-69
2021/08/26 00:39:11;;;;;;;1.60;1.50;;;;;23.20;100410.00;;;;2072765;28;20225;-69
2021/08/26 00:40:12;;;;;;;1.50;1.40;;;;;23.20;100403.00;;;;2072932;28;20676;-69
2021/08/26 00:41:27;;;;;;;1.70;1.60;;;;;23.20;100396.00;;;;2072922;28;20696;-69
2021/08/26 00:42:27;;;;;;;1.60;1.50;;;;;23.20;100403.00;;;;2070081;28;20308;-69
2021/08/26 00:43:27;;;;;;;1.50;1.40;;;;;23.20;100394.00;;;;2071267;28;20214;-69
2021/08/26 00:44:28;;;;;;;1.33;1.23;;;;;23.20;100403.00;;;;2071322;28;20222;-69
2021/08/26 00:45:29;;;;;;;2.07;1.50;;;;;23.20;100404.00;;;;2071927;28;20603;-69
2021/08/26 00:46:29;;;;;;;1.73;1.63;;;;;23.20;100390.00;;;;2072508;28;20214;-69
2021/08/26 00:47:29;;;;;;;2.13;1.60;;;;;23.20;100397.00;;;;2072365;28;20222;-69
2021/08/26 00:48:30;;;;;;;1.60;1.50;;;;;23.20;100398.00;;;;2072695;28;20268;-69
2021/08/26 00:49:30;;;;;;;1.60;1.50;;;;;23.20;100388.00;;;;2072836;28;20287;-69
2021/08/26 00:50:31;;;;;;;1.53;1.43;;;;;23.20;100395.00;;;;2073043;28;20229;-69
2021/08/26 00:51:33;;;;;;;1.60;1.50;;;;;23.20;100393.00;;;;2072987;28;20217;-69
2021/08/26 00:52:35;;;;;;;1.80;1.70;;;;;23.20;100392.00;;;;2072280;28;20213;-69
2021/08/26 00:53:39;;;;;;;1.95;1.85;;;;;23.20;100383.00;;;;2072431;28;20272;-68
2021/08/26 00:54:39;;;;;;;1.80;1.70;;;;;23.20;100390.00;;;;2067655;28;20292;-69
2021/08/26 00:55:39;;;;;;;1.93;1.83;;;;;23.20;100383.00;;;;2072962;28;20688;-69
2021/08/26 00:56:40;;;;;;;1.67;1.57;;;;;23.20;100388.00;;;;2073022;28;20233;-69
2021/08/26 00:57:40;;;;;;;1.93;1.77;;;;;23.20;100388.00;;;;2072950;28;20228;-69
2021/08/26 00:58:44;;;;;;;1.73;1.63;;;;;23.20;100383.00;;;;2072166;28;20226;-69
2021/08/26 00:59:44;;;;;;;2.20;2.00;;;;;23.20;100379.00;;;;2061175;28;20219;-69
2021/08/26 01:00:46;;;;;;;1.47;1.37;;;;;23.20;100364.00;;;;2067692;28;20654;-69
2021/08/26 01:01:52;;;;;;;1.88;1.77;;;;;23.20;100378.00;;;;2063715;28;20698;-69
2021/08/26 01:03:04;;;;;;;1.80;1.70;;;;;23.20;100369.00;;;;2057676;28;20262;-69
2021/08/26 01:04:25;;;;;;;2.08;1.95;;;;;23.20;100382.00;;;;2065707;28;20246;-69
2021/08/26 01:05:40;;;;;;;1.85;1.75;;;;;23.20;100371.00;;;;2070065;28;20217;-69
2021/08/26 01:07:01;;;;;;;1.67;1.58;;;;;23.20;100373.00;;;;2069967;28;20300;-68
2021/08/26 01:08:25;;;;;;;1.40;1.30;;;;;23.20;100377.00;;;;2060539;28;20221;-69
2021/08/26 01:09:28;;;;;;;1.80;1.70;;;;;23.20;100382.00;;;;2053174;28;20624;-69
2021/08/26 01:10:29;;;;;;;1.67;1.58;;;;;23.20;100361.00;;;;2062793;28;20241;-69
2021/08/26 01:11:33;;;;;;;1.87;1.77;;;;;23.20;100368.00;;;;2051167;28;20208;-70
2021/08/26 01:12:34;;;;;;;1.67;1.58;;;;;23.20;100374.00;;;;2070977;28;20369;-69
2021/08/26 01:13:38;;;;;;;1.75;1.65;;;;;23.20;100371.00;;;;2068818;28;20230;-69
2021/08/26 01:14:39;;;;;;;2.00;1.80;;;;;23.20;100367.00;;;;2072117;28;20226;-69
2021/08/26 01:15:39;;;;;;;2.10;1.70;;;;;23.20;100382.00;;;;2072118;28;20245;-70
2021/08/26 01:16:39;;;;;;;1.60;1.50;;;;;23.20;100393.00;;;;2072114;28;20226;-69
2021/08/26 01:17:42;;;;;;;1.90;1.80;;;;;23.20;100388.00;;;;2072714;28;20209;-69
2021/08/26 01:18:44;;;;;;;1.65;1.55;;;;;23.20;100390.00;;;;2071411;28;20220;-69
2021/08/26 01:19:45;;;;;;;1.73;1.63;;;;;23.20;100376.00;;;;2071923;28;20233;-69
2021/08/26 01:20:45;;;;;;;2.00;1.90;;;;;23.20;100382.00;;;;2072716;28;20218;-69
2021/08/26 01:21:46;;;;;;;1.97;1.77;;;;;23.20;100376.00;;;;2072568;28;20218;-71
2021/08/26 01:22:47;;;;;;;2.00;1.90;;;;;23.20;100383.00;;;;2072518;28;20211;-69
2021/08/26 01:23:49;;;;;;;1.80;1.70;;;;;23.20;100378.00;;;;2062796;28;20226;-69
2021/08/26 01:24:53;;;;;;;2.15;1.95;;;;;23.20;100370.00;;;;2051793;28;20207;-69
2021/08/26 01:25:54;;;;;;;1.65;1.55;;;;;23.20;100386.00;;;;2060994;28;20226;-69
2021/08/26 01:26:55;;;;;;;1.90;1.80;;;;;23.20;100387.00;;;;2055175;28;20215;-69
2021/08/26 01:27:58;;;;;;;2.22;2.08;;;;;23.20;100381.00;;;;2054980;28;20216;-70
2021/08/26 01:28:59;;;;;;;2.17;2.00;;;;;23.20;100382.00;;;;2070845;28;20708;-69
2021/08/26 01:30:01;;;;;;;2.40;2.20;;;;;23.20;100371.00;;;;2071598;28;20294;-69
2021/08/26 01:31:02;;;;;;;2.05;1.85;;;;;23.20;100386.00;;;;2071037;28;20218;-69
2021/08/26 01:32:03;;;;;;;1.92;1.83;;;;;23.20;100382.00;;;;2061219;28;20221;-69
2021/08/26 01:33:03;;;;;;;2.20;2.10;;;;;23.20;100379.00;;;;2058120;28;20210;-69
2021/08/26 01:34:03;;;;;;;1.87;1.77;;;;;23.20;100383.00;;;;2063360;28;20253;-69
2021/08/26 01:35:04;;;;;;;2.30;2.20;;;;;23.20;100384.00;;;;2071346;28;20218;-69
2021/08/26 01:36:05;;;;;;;2.17;2.07;;;;;23.20;100384.00;;;;2068099;28;20950;-69
2021/08/26 01:37:05;;;;;;;2.63;2.43;;;;;23.20;100377.00;;;;2071482;28;20461;-69
2021/08/26 01:38:05;;;;;;;2.20;2.10;;;;;23.20;100383.00;;;;2069622;28;20222;-68
2021/08/26 01:39:10;;;;;;;2.20;2.10;;;;;23.20;100377.00;;;;2071190;28;20226;-69
2021/08/26 01:40:10;;;;;;;2.03;1.92;;;;;23.20;100373.00;;;;2070951;28;20759;-69
2021/08/26 01:41:14;;;;;;;2.00;1.90;;;;;23.20;100373.00;;;;2071446;28;20214;-69
2021/08/26 01:42:14;;;;;;;2.08;1.98;;;;;23.20;100374.00;;;;2071238;28;20238;-70
2021/08/26 01:43:14;;;;;;;2.10;2.00;;;;;23.20;100377.00;;;;2071041;28;20606;-70
2021/08/26 01:44:17;;;;;;;2.40;2.20;;;;;23.20;100377.00;;;;2071722;28;20756;-70
2021/08/26 01:45:17;;;;;;;1.88;1.77;;;;;23.20;100373.00;;;;2072461;28;20217;-70
2021/08/26 01:46:17;;;;;;;2.23;2.13;;;;;23.20;100388.00;;;;2072495;28;20210;-70
2021/08/26 01:47:20;;;;;;;2.40;2.20;;;;;23.20;100383.00;;;;2072010;28;20280;-70
2021/08/26 01:48:20;;;;;;;2.45;2.25;;;;;23.20;100387.00;;;;2072112;28;20268;-69
2021/08/26 01:49:21;;;;;;;1.90;1.80;;;;;23.20;100385.00;;;;2072047;28;20751;-70
2021/08/26 01:50:21;;;;;;;2.13;2.00;;;;;23.20;100389.00;;;;2072397;28;20635;-70
2021/08/26 01:51:21;;;;;;;1.90;1.80;;;;;23.20;100388.00;;;;2072428;28;20221;-69
2021/08/26 01:52:23;;;;;;;2.40;2.20;;;;;23.20;100393.00;;;;2072328;28;20250;-69
2021/08/26 01:53:23;;;;;;;1.80;1.70;;;;;23.20;100382.00;;;;2072337;28;20701;-70
2021/08/26 01:54:24;;;;;;;2.07;1.97;;;;;23.20;100378.00;;;;2071585;28;20218;-70
2021/08/26 01:55:24;;;;;;;2.43;2.23;;;;;23.20;100378.00;;;;2071488;28;20276;-69
2021/08/26 01:56:24;;;;;;;2.10;2.00;;;;;23.20;100369.00;;;;2072295;28;20272;-70
2021/08/26 01:57:25;;;;;;;2.37;2.17;;;;;23.20;100372.00;;;;2072411;28;20218;-70
2021/08/26 01:58:26;;;;;;;2.03;1.92;;;;;23.20;100377.00;;;;2071639;28;20218;-70
2021/08/26 01:59:27;;;;;;;1.73;1.63;;;;;23.20;100375.00;;;;2071588;28;20234;-70
2021/08/26 02:00:27;;;;;;;2.15;2.05;;;;;23.20;100368.00;;;;2072371;28;20218;-70
2021/08/26 02:01:27;;;;;;;1.80;1.70;;;;;23.20;100376.00;;;;2071722;28;20256;-70
2021/08/26 02:02:28;;;;;;;1.90;1.80;;;;;23.20;100372.00;;;;2071546;28;20297;-70
2021/08/26 02:03:28;;;;;;;2.20;2.00;;;;;23.20;100378.00;;;;2071744;28;20218;-70
2021/08/26 02:04:28;;;;;;;2.10;2.00;;;;;23.20;100375.00;;;;2072199;28;20735;-70
2021/08/26 02:05:29;;;;;;;2.23;2.10;;;;;23.20;100372.00;;;;2072399;28;20701;-70
2021/08/26 02:06:29;;;;;;;2.50;2.30;;;;;23.20;100366.00;;;;2072222;28;20632;-70
2021/08/26 02:07:29;;;;;;;2.30;2.20;;;;;23.20;100373.00;;;;2072361;28;20297;-70
2021/08/26 02:08:30;;;;;;;2.20;2.10;;;;;23.20;100370.00;;;;2072267;28;20206;-70
2021/08/26 02:09:30;;;;;;;2.30;2.10;;;;;23.20;100370.00;;;;2072265;28;20207;-70
2021/08/26 02:10:30;;;;;;;2.20;2.10;;;;;23.20;100360.00;;;;2072193;28;20265;-70
2021/08/26 02:11:31;;;;;;;2.13;2.03;;;;;23.20;100375.00;;;;2071612;28;20244;-70
2021/08/26 02:12:31;;;;;;;2.47;2.27;;;;;23.20;100367.00;;;;2071570;28;20214;-70
2021/08/26 02:13:31;;;;;;;2.43;2.27;;;;;23.20;100365.00;;;;2072284;28;20211;-70
2021/08/26 02:14:32;;;;;;;2.27;2.13;;;;;23.20;100364.00;;;;2072333;28;20642;-70
2021/08/26 02:15:32;;;;;;;2.30;2.20;;;;;23.20;100363.00;;;;2072127;28;20210;-70
2021/08/26 02:16:32;;;;;;;2.10;2.00;;;;;23.20;100366.00;;;;2072200;28;20233;-70
2021/08/26 02:17:33;;;;;;;1.90;1.80;;;;;23.20;100364.00;;;;2072054;28;20222;-70
2021/08/26 02:18:33;;;;;;;2.00;1.90;;;;;23.20;100361.00;;;;2072154;28;20225;-70
2021/08/26 02:19:33;;;;;;;2.00;1.90;;;;;23.20;100360.00;;;;2071819;28;20218;-70
2021/08/26 02:20:34;;;;;;;1.80;1.70;;;;;23.20;100363.00;;;;2072158;28;20226;-70
2021/08/26 02:21:34;;;;;;;2.10;2.00;;;;;23.20;100365.00;;;;2072222;28;20221;-70
2021/08/26 02:22:35;;;;;;;2.20;2.10;;;;;23.20;100362.00;;;;2071926;28;20218;-70
2021/08/26 02:23:35;;;;;;;2.30;2.20;;;;;23.20;100369.00;;;;2072242;28;20219;-70
2021/08/26 02:24:35;;;;;;;2.03;1.93;;;;;23.20;100372.00;;;;2071941;28;20218;-70
2021/08/26 02:25:36;;;;;;;2.07;1.97;;;;;23.20;100366.00;;;;2071445;28;20206;-70
2021/08/26 02:26:36;;;;;;;2.80;2.60;;;;;23.20;100365.00;;;;2071385;28;20210;-70
2021/08/26 02:27:36;;;;;;;2.20;2.10;;;;;23.20;100359.00;;;;2072118;28;20218;-70
2021/08/26 02:28:37;;;;;;;1.73;1.63;;;;;23.20;100362.00;;;;2072174;28;20641;-70
2021/08/26 02:29:37;;;;;;;2.17;2.07;;;;;23.20;100358.00;;;;2072002;28;20234;-69
2021/08/26 02:30:38;;;;;;;2.47;2.27;;;;;23.20;100362.00;;;;2071728;28;20214;-70
2021/08/26 02:31:39;;;;;;;2.10;2.00;;;;;23.20;100357.00;;;;2071544;28;20689;-70
2021/08/26 02:32:39;;;;;;;2.00;1.90;;;;;23.20;100357.00;;;;2071407;28;20218;-70
2021/08/26 02:33:39;;;;;;;2.00;1.90;;;;;23.20;100362.00;;;;2071583;28;20218;-70
2021/08/26 02:34:40;;;;;;;2.00;1.90;;;;;23.20;100363.00;;;;2072007;28;20676;-70
2021/08/26 02:35:40;;;;;;;2.40;2.20;;;;;23.20;100357.00;;;;2071943;28;20722;-70
2021/08/26 02:36:40;;;;;;;2.57;2.37;;;;;23.20;100357.00;;;;2072103;28;20569;-70
2021/08/26 02:37:41;;;;;;;2.10;1.90;;;;;23.20;100357.00;;;;2072156;28;20602;-70
2021/08/26 02:38:41;;;;;;;2.00;1.90;;;;;23.20;100362.00;;;;2072040;28;20215;-70
2021/08/26 02:39:41;;;;;;;2.20;2.10;;;;;23.20;100351.00;;;;2071671;28;20214;-70
2021/08/26 02:40:42;;;;;;;2.17;1.93;;;;;23.20;100355.00;;;;2072027;28;20638;-70
2021/08/26 02:41:42;;;;;;;2.03;1.93;;;;;23.20;100356.00;;;;2072130;28;20635;-70
2021/08/26 02:42:42;;;;;;;1.80;1.70;;;;;23.20;100354.00;;;;2072013;28;20656;-70
2021/08/26 02:43:43;;;;;;;2.33;2.13;;;;;23.20;100349.00;;;;2072153;28;20592;-69
2021/08/26 02:44:43;;;;;;;1.93;1.83;;;;;23.20;100353.00;;;;2072111;28;20671;-70
2021/08/26 02:45:43;;;;;;;2.13;2.03;;;;;23.20;100353.00;;;;2072080;28;20694;-70
2021/08/26 02:46:44;;;;;;;1.90;1.80;;;;;23.20;100358.00;;;;2071239;28;20222;-70
2021/08/26 02:47:44;;;;;;;2.17;2.07;;;;;23.20;100357.00;;;;2071192;28;20242;-70
2021/08/26 02:48:44;;;;;;;2.00;1.90;;;;;23.20;100359.00;;;;2071867;28;20226;-70
2021/08/26 02:49:45;;;;;;;2.27;2.07;;;;;23.20;100349.00;;;;2071896;28;20573;-70
2021/08/26 02:50:45;;;;;;;1.90;1.80;;;;;23.20;100350.00;;;;2071869;28;20233;-70
2021/08/26 02:51:45;;;;;;;2.50;2.30;;;;;23.20;100360.00;;;;2072040;28;20252;-70
2021/08/26 02:52:46;;;;;;;2.07;1.97;;;;;23.20;100354.00;;;;2071121;28;20224;-70
2021/08/26 02:53:46;;;;;;;2.13;2.03;;;;;23.20;100353.00;;;;2071400;28;20222;-70
2021/08/26 02:54:47;;;;;;;1.90;1.80;;;;;23.10;100351.00;;;;2071529;28;20225;-70
2021/08/26 02:55:47;;;;;;;2.03;1.93;;;;;23.10;100350.00;;;;2071949;28;20225;-71
2021/08/26 02:56:47;;;;;;;2.00;1.90;;;;;23.20;100350.00;;;;2071300;28;20301;-70
2021/08/26 02:57:48;;;;;;;1.90;1.80;;;;;23.20;100353.00;;;;2070738;28;20226;-70
2021/08/26 02:58:48;;;;;;;2.07;1.90;;;;;23.20;100354.00;;;;2071540;28;20222;-70
2021/08/26 02:59:48;;;;;;;2.07;1.93;;;;;23.20;100346.00;;;;2071300;28;20296;-70
2021/08/26 03:00:49;;;;;;;2.10;2.00;;;;;23.20;100350.00;;;;2071379;28;20241;-70
2021/08/26 03:01:49;;;;;;;1.80;1.70;;;;;23.20;100343.00;;;;2071394;28;20241;-70
2021/08/26 03:02:49;;;;;;;2.00;1.90;;;;;23.20;100346.00;;;;2071591;28;20218;-70
2021/08/26 03:03:50;;;;;;;2.13;2.00;;;;;23.20;100356.00;;;;2071464;28;20291;-70
2021/08/26 03:04:50;;;;;;;1.80;1.70;;;;;23.20;100352.00;;;;2070960;28;20244;-70
2021/08/26 03:05:50;;;;;;;1.80;1.70;;;;;23.20;100358.00;;;;2071443;28;20592;-70
2021/08/26 03:06:51;;;;;;;2.20;2.10;;;;;23.20;100357.00;;;;2071376;28;20588;-70
2021/08/26 03:07:51;;;;;;;1.87;1.77;;;;;23.20;100364.00;;;;2070901;28;20603;-70
2021/08/26 03:08:51;;;;;;;2.30;2.03;;;;;23.20;100355.00;;;;2070383;28;20245;-70
2021/08/26 03:09:52;;;;;;;1.93;1.83;;;;;23.20;100356.00;;;;2071087;28;20241;-70
2021/08/26 03:10:52;;;;;;;1.80;1.70;;;;;23.20;100353.00;;;;2071556;28;20264;-70
2021/08/26 03:11:52;;;;;;;2.07;1.87;;;;;23.10;100350.00;;;;2068435;28;20785;-70
2021/08/26 03:12:53;;;;;;;1.83;1.73;;;;;23.10;100359.00;;;;2071365;28;20588;-70
2021/08/26 03:13:53;;;;;;;2.00;1.90;;;;;23.20;100361.00;;;;2071232;28;20628;-70
2021/08/26 03:14:54;;;;;;;1.70;1.60;;;;;23.20;100354.00;;;;2070992;28;20217;-70
2021/08/26 03:15:54;;;;;;;1.73;1.63;;;;;23.20;100359.00;;;;2071355;28;21265;-69
2021/08/26 03:16:54;;;;;;;2.90;1.87;;;;;23.10;100352.00;;;;2070862;28;20776;-70
2021/08/26 03:17:55;;;;;;;1.70;1.60;;;;;23.10;100364.00;;;;2071721;28;20249;-70
2021/08/26 03:18:55;;;;;;;1.97;1.87;;;;;23.20;100343.00;;;;2070777;28;20226;-69
2021/08/26 03:19:55;;;;;;;2.10;2.00;;;;;23.10;100308.00;;;;2071202;28;20585;-70
2021/08/26 03:20:56;;;;;;;2.13;2.03;;;;;23.10;100345.00;;;;2071686;28;20632;-70
2021/08/26 03:21:56;;;;;;;1.80;1.70;;;;;23.20;100357.00;;;;2071550;28;20649;-70
2021/08/26 03:22:58;;;;;;;1.83;1.73;;;;;23.20;100357.00;;;;2071753;28;20611;-70
2021/08/26 03:23:58;;;;;;;2.10;2.00;;;;;23.20;100357.00;;;;2071817;28;20246;-70
2021/08/26 03:24:59;;;;;;;1.67;1.57;;;;;23.20;100355.00;;;;2071861;28;20221;-70
2021/08/26 03:25:59;;;;;;;2.87;2.10;;;;;23.20;100356.00;;;;2071691;28;20210;-70
2021/08/26 03:26:59;;;;;;;2.10;2.00;;;;;23.10;100361.00;;;;2071775;28;20221;-70
2021/08/26 03:28:00;;;;;;;2.20;2.03;;;;;23.20;100367.00;;;;2071026;28;20265;-70
2021/08/26 03:29:00;;;;;;;1.63;1.53;;;;;23.20;100364.00;;;;2070967;28;20225;-70
2021/08/26 03:30:00;;;;;;;1.87;1.67;;;;;23.20;100357.00;;;;2071679;28;20214;-70
2021/08/26 03:31:01;;;;;;;1.70;1.60;;;;;23.10;100362.00;;;;2071485;28;20301;-70
2021/08/26 03:32:01;;;;;;;1.80;1.70;;;;;23.10;100359.00;;;;2071682;28;20218;-70
2021/08/26 03:33:01;;;;;;;2.20;2.00;;;;;23.10;100358.00;;;;2070982;28;20214;-70
2021/08/26 03:34:02;;;;;;;1.67;1.57;;;;;23.10;100371.00;;;;2071244;28;20309;-70
2021/08/26 03:35:03;;;;;;;1.70;1.60;;;;;23.10;100364.00;;;;2071621;28;20568;-70
2021/08/26 03:36:04;;;;;;;1.70;1.60;;;;;23.10;100359.00;;;;2070929;28;20260;-70
2021/08/26 03:37:04;;;;;;;1.70;1.60;;;;;23.20;100357.00;;;;2070956;28;20214;-71
2021/08/26 03:38:05;;;;;;;1.97;1.87;;;;;23.20;100366.00;;;;2071699;28;20459;-70
2021/08/26 03:39:05;;;;;;;2.33;1.90;;;;;23.10;100361.00;;;;2070813;28;20214;-70
2021/08/26 03:40:06;;;;;;;1.90;1.80;;;;;23.10;100370.00;;;;2070594;28;20245;-70
2021/08/26 03:41:06;;;;;;;1.73;1.63;;;;;23.10;100363.00;;;;2071591;28;20250;-70
2021/08/26 03:42:06;;;;;;;1.70;1.60;;;;;23.10;100359.00;;;;2071551;28;20465;-70
2021/08/26 03:43:07;;;;;;;2.00;1.70;;;;;23.10;100359.00;;;;2071757;28;20272;-70
2021/08/26 03:44:07;;;;;;;1.80;1.67;;;;;23.10;100363.00;;;;2071337;28;20222;-70
2021/08/26 03:45:08;;;;;;;1.60;1.50;;;;;23.10;100362.00;;;;2071280;28;20214;-70
2021/08/26 03:46:08;;;;;;;1.70;1.60;;;;;23.10;100367.00;;;;2070823;28;20264;-70
2021/08/26 03:47:09;;;;;;;1.50;1.40;;;;;23.10;100356.00;;;;2070894;28;20360;-70
2021/08/26 03:48:10;;;;;;;1.80;1.70;;;;;23.10;100361.00;;;;2070777;28;20233;-70
2021/08/26 03:49:10;;;;;;;1.60;1.50;;;;;23.10;100357.00;;;;2069221;28;20725;-70
2021/08/26 03:50:10;;;;;;;1.40;1.30;;;;;23.10;100359.00;;;;2068250;28;20707;-70
2021/08/26 03:51:11;;;;;;;1.50;1.40;;;;;23.10;100357.00;;;;2071028;28;20572;-70
2021/08/26 03:52:11;;;;;;;1.90;1.80;;;;;23.10;100350.00;;;;2071030;28;20544;-69
2021/08/26 03:53:11;;;;;;;1.80;1.70;;;;;23.10;100349.00;;;;2070941;28;20364;-70
2021/08/26 03:54:12;;;;;;;1.70;1.60;;;;;23.20;100353.00;;;;2070840;28;20210;-70
2021/08/26 03:55:12;;;;;;;1.57;1.47;;;;;23.10;100349.00;;;;2069220;28;20221;-70
2021/08/26 03:56:12;;;;;;;1.63;1.23;;;;;23.10;100347.00;;;;2071127;28;20221;-70
2021/08/26 03:57:13;;;;;;;1.60;1.50;;;;;23.10;100349.00;;;;2070310;28;20241;-70
2021/08/26 03:58:13;;;;;;;1.50;1.40;;;;;23.10;100350.00;;;;2070394;28;20214;-70
2021/08/26 03:59:13;;;;;;;1.67;1.57;;;;;23.10;100347.00;;;;2070324;28;20210;-69
2021/08/26 04:00:14;;;;;;;1.57;1.47;;;;;23.10;100343.00;;;;2070854;28;20309;-69
2021/08/26 04:01:14;;;;;;;1.80;1.70;;;;;23.10;100340.00;;;;2071580;28;20684;-70
2021/08/26 04:02:15;;;;;;;1.47;1.37;;;;;23.10;100345.00;;;;2071387;28;20607;-69
2021/08/26 04:03:15;;;;;;;1.70;1.60;;;;;23.10;100341.00;;;;2070802;28;20248;-70
2021/08/26 04:04:15;;;;;;;1.60;1.50;;;;;23.10;100338.00;;;;2070906;28;20218;-70
2021/08/26 04:05:16;;;;;;;1.57;1.47;;;;;23.10;100338.00;;;;2071510;28;20238;-70
2021/08/26 04:06:16;;;;;;;1.33;1.23;;;;;23.10;100331.00;;;;2071534;28;20214;-70
2021/08/26 04:07:18;;;;;;;1.60;1.50;;;;;23.10;100338.00;;;;2071537;28;20206;-69
2021/08/26 04:08:18;;;;;;;1.60;1.50;;;;;23.10;100331.00;;;;2071481;28;20263;-70
2021/08/26 04:09:18;;;;;;;1.90;1.80;;;;;23.10;100326.00;;;;2071367;28;20583;-70
2021/08/26 04:10:19;;;;;;;1.70;1.60;;;;;23.10;100325.00;;;;2071516;28;20701;-69
2021/08/26 04:11:19;;;;;;;1.63;1.47;;;;;23.10;100335.00;;;;2071465;28;20727;-70
2021/08/26 04:12:19;;;;;;;1.40;1.30;;;;;23.10;100338.00;;;;2071255;28;20206;-70
2021/08/26 04:13:20;;;;;;;2.00;1.90;;;;;23.10;100324.00;;;;2070597;28;20217;-70
2021/08/26 04:14:20;;;;;;;1.70;1.60;;;;;23.10;100335.00;;;;2070862;28;20799;-69
2021/08/26 04:15:21;;;;;;;1.50;1.40;;;;;23.10;100331.00;;;;2071507;28;20600;-70
2021/08/26 04:16:21;;;;;;;1.57;1.47;;;;;23.10;100332.00;;;;2071562;28;20584;-70
2021/08/26 04:17:21;;;;;;;1.40;1.30;;;;;23.10;100323.00;;;;2069988;28;20260;-70
2021/08/26 04:18:22;;;;;;;1.53;1.43;;;;;23.10;100340.00;;;;2070525;28;20602;-70
2021/08/26 04:19:22;;;;;;;1.70;1.50;;;;;23.10;100334.00;;;;2071124;28;20214;-71
2021/08/26 04:20:22;;;;;;;1.87;1.70;;;;;23.10;100338.00;;;;2071520;28;20224;-69
2021/08/26 04:21:23;;;;;;;1.43;1.30;;;;;23.10;100336.00;;;;2071389;28;20802;-70
2021/08/26 04:22:23;;;;;;;1.70;1.60;;;;;23.10;100335.00;;;;2071384;28;20237;-70
2021/08/26 04:23:23;;;;;;;1.57;1.47;;;;;23.10;100335.00;;;;2071556;28;20211;-70
2021/08/26 04:24:24;;;;;;;1.90;1.70;;;;;23.10;100339.00;;;;2071323;28;20272;-70
2021/08/26 04:25:24;;;;;;;1.80;1.70;;;;;23.10;100326.00;;;;2071535;28;20249;-70
2021/08/26 04:26:24;;;;;;;1.40;1.30;;;;;23.10;100341.00;;;;2071450;28;20976;-70
2021/08/26 04:27:25;;;;;;;1.60;1.50;;;;;23.10;100338.00;;;;2071375;28;20297;-70
2021/08/26 04:28:25;;;;;;;1.63;1.53;;;;;23.10;100336.00;;;;2061814;28;20206;-70
2021/08/26 04:29:25;;;;;;;1.83;1.70;;;;;23.10;100332.00;;;;2070459;28;20771;-70
2021/08/26 04:30:26;;;;;;;1.60;1.47;;;;;23.10;100322.00;;;;2061365;28;20298;-70
2021/08/26 04:31:26;;;;;;;1.50;1.40;;;;;23.10;100330.00;;;;2068434;28;20227;-70
2021/08/26 04:32:26;;;;;;;1.67;1.57;;;;;23.10;100333.00;;;;2071395;28;20210;-69
2021/08/26 04:33:27;;;;;;;1.40;1.30;;;;;23.10;100335.00;;;;2071441;28;20206;-70
2021/08/26 04:34:27;;;;;;;1.50;1.40;;;;;23.10;100335.00;;;;2070609;28;20309;-69
2021/08/26 04:35:27;;;;;;;1.40;1.30;;;;;23.10;100324.00;;;;2070246;28;20211;-69
2021/08/26 04:36:28;;;;;;;1.70;1.60;;;;;23.10;100326.00;;;;2071378;28;20210;-70
2021/08/26 04:37:29;;;;;;;1.60;1.50;;;;;23.10;100332.00;;;;2071412;28;20596;-70
2021/08/26 04:38:29;;;;;;;1.52;1.30;;;;;23.10;100324.00;;;;2070693;28;20210;-70
2021/08/26 04:39:30;;;;;;;1.40;1.30;;;;;23.10;100325.00;;;;2070639;28;20218;-70
2021/08/26 04:40:30;;;;;;;1.50;1.40;;;;;23.10;100321.00;;;;2071400;28;20238;-70
2021/08/26 04:41:31;;;;;;;1.80;1.67;;;;;23.10;100332.00;;;;2070862;28;20794;-70
2021/08/26 04:42:31;;;;;;;1.50;1.40;;;;;23.10;100320.00;;;;2070695;28;20790;-70
2021/08/26 04:43:31;;;;;;;1.57;1.30;;;;;23.10;100322.00;;;;2067343;28;20210;-70
2021/08/26 04:44:32;;;;;;;1.60;1.50;;;;;23.10;100323.00;;;;2071478;28;20211;-70
2021/08/26 04:45:32;;;;;;;1.70;1.60;;;;;23.10;100335.00;;;;2070998;28;20264;-70
2021/08/26 04:46:32;;;;;;;1.40;1.20;;;;;23.10;100323.00;;;;2071021;28;20218;-69
2021/08/26 04:47:33;;;;;;;1.60;1.43;;;;;23.10;100324.00;;;;2072172;28;20222;-69
2021/08/26 04:48:33;;;;;;;1.50;1.40;;;;;23.10;100319.00;;;;2072487;28;20607;-70
2021/08/26 04:49:33;;;;;;;1.70;1.60;;;;;23.10;100322.00;;;;2072369;28;20221;-69
2021/08/26 04:50:34;;;;;;;1.60;1.43;;;;;23.10;100324.00;;;;2072888;28;20210;-70
2021/08/26 04:51:34;;;;;;;1.63;1.30;;;;;23.10;100325.00;;;;2070578;28;20313;-70
2021/08/26 04:52:34;;;;;;;1.40;1.30;;;;;23.10;100321.00;;;;2071327;28;20265;-70
2021/08/26 04:53:35;;;;;;;1.50;1.40;;;;;23.10;100318.00;;;;2072135;28;20210;-69
2021/08/26 04:54:35;;;;;;;1.63;1.40;;;;;23.10;100321.00;;;;2072354;28;20267;-70
2021/08/26 04:55:35;;;;;;;1.50;1.40;;;;;23.10;100322.00;;;;2072914;28;20233;-70
2021/08/26 04:56:35;;;;;;;1.30;1.20;;;;;23.10;100318.00;;;;2072845;28;20217;-69
2021/08/26 04:57:36;;;;;;;1.50;1.40;;;;;23.10;100324.00;;;;2072802;28;20210;-70
2021/08/26 04:58:38;;;;;;;1.13;1.03;;;;;23.10;100326.00;;;;2072947;28;20300;-70
2021/08/26 04:59:38;;;;;;;1.58;1.48;;;;;23.10;100324.00;;;;2072650;28;20736;-69
2021/08/26 05:00:38;;;;;;;1.50;1.27;;;;;23.10;100324.00;;;;2072853;28;20214;-69
2021/08/26 05:01:39;;;;;;;1.40;1.30;;;;;23.10;100318.00;;;;2072830;28;20206;-69
2021/08/26 05:02:39;;;;;;;1.37;1.00;;;;;23.10;100326.00;;;;2072804;28;20249;-69
2021/08/26 05:03:39;;;;;;;1.60;1.40;;;;;23.10;100325.00;;;;2072907;28;20210;-69
2021/08/26 05:04:40;;;;;;;1.70;1.60;;;;;23.10;100323.00;;;;2072707;28;20218;-69
2021/08/26 05:05:40;;;;;;;1.50;1.40;;;;;23.10;100325.00;;;;2072695;28;20284;-69
2021/08/26 05:06:40;;;;;;;1.30;1.20;;;;;23.10;100321.00;;;;2072746;28;20233;-69